Time;durP1;ratioP1;P1;durP2;ratioP2;P2;SDS_P1;SDS_P2;PMS_P1;PMS_P2;Temp;Humidity;BMP_temperature;BMP_pressure;BME280_temperature;BME280_humidity;BME280_pressure;Samples;Min_cycle;Max_cycle;Signal;HPM_P1;HPM_P2
2022/12/06 00:00:50;;;;;;;7.03;5.30;;;4.00;99.90;;;;;;4995334;28;20177;-87
2022/12/06 00:03:16;;;;;;;6.73;4.93;;;4.00;99.90;;;;;;4977833;28;20209;-87
2022/12/06 00:05:41;;;;;;;6.50;5.40;;;4.10;99.90;;;;;;5010031;28;20193;-87
2022/12/06 00:08:07;;;;;;;7.27;5.90;;;4.10;99.90;;;;;;4992759;28;20179;-88
2022/12/06 00:10:35;;;;;;;6.27;4.90;;;4.10;99.90;;;;;;4997058;28;20185;-88
2022/12/06 00:13:02;;;;;;;6.83;4.90;;;4.10;99.90;;;;;;5013548;28;20183;-87
2022/12/06 00:15:28;;;;;;;8.57;5.47;;;4.10;99.90;;;;;;4997272;28;20188;-87
2022/12/06 00:17:54;;;;;;;6.73;5.40;;;4.10;99.90;;;;;;5012962;28;20211;-88
2022/12/06 00:20:20;;;;;;;7.17;5.53;;;4.10;99.90;;;;;;4996586;28;20241;-87
2022/12/06 00:22:46;;;;;;;6.80;5.63;;;4.10;99.90;;;;;;4996905;28;20215;-87
2022/12/06 00:25:12;;;;;;;8.20;5.80;;;4.10;99.90;;;;;;5013172;28;20183;-87
2022/12/06 00:27:38;;;;;;;6.97;5.73;;;4.10;99.90;;;;;;4996448;28;20254;-87
2022/12/06 00:30:05;;;;;;;8.00;5.23;;;4.10;99.90;;;;;;4997987;28;20186;-87
2022/12/06 00:32:31;;;;;;;5.80;5.20;;;4.10;99.90;;;;;;4996739;28;20180;-87
2022/12/06 00:34:56;;;;;;;6.70;5.53;;;4.10;99.90;;;;;;4996785;28;20176;-87
2022/12/06 00:37:22;;;;;;;8.63;6.20;;;4.10;99.90;;;;;;4996425;28;20242;-88
2022/12/06 00:39:48;;;;;;;7.37;6.00;;;4.10;99.90;;;;;;4996471;28;20183;-87
2022/12/06 00:42:14;;;;;;;8.23;5.80;;;4.10;99.90;;;;;;5029233;28;20183;-87
2022/12/06 00:44:40;;;;;;;6.47;5.17;;;4.10;99.90;;;;;;5012594;28;20290;-87
2022/12/06 00:47:06;;;;;;;8.40;5.70;;;4.10;99.90;;;;;;5012649;28;20191;-88
2022/12/06 00:49:32;;;;;;;7.93;5.20;;;4.10;99.90;;;;;;5012903;28;20186;-87
2022/12/06 00:51:58;;;;;;;6.27;5.00;;;4.10;99.90;;;;;;5029206;28;20182;-87
2022/12/06 00:54:24;;;;;;;6.37;4.73;;;4.00;99.90;;;;;;5012387;28;20198;-87
2022/12/06 00:56:50;;;;;;;6.73;5.50;;;4.00;99.90;;;;;;5012601;28;20545;-88
2022/12/06 00:59:16;;;;;;;7.73;6.17;;;3.90;99.90;;;;;;5012757;28;20275;-87
2022/12/06 01:01:42;;;;;;;8.43;5.47;;;3.80;99.90;;;;;;5012527;28;20222;-87
2022/12/06 01:04:08;;;;;;;10.37;6.27;;;3.80;99.90;;;;;;5012068;28;20242;-87
2022/12/06 01:06:36;;;;;;;7.80;5.57;;;3.60;99.90;;;;;;5012360;28;20202;-87
2022/12/06 01:09:06;;;;;;;7.93;5.33;;;3.60;99.90;;;;;;5012197;28;20179;-87
2022/12/06 01:11:32;;;;;;;6.80;4.83;;;3.60;99.90;;;;;;5029097;28;20230;-87
2022/12/06 01:13:58;;;;;;;6.20;4.67;;;3.50;99.90;;;;;;5012719;28;20182;-86
2022/12/06 01:16:27;;;;;;;6.20;4.97;;;3.40;99.90;;;;;;5012237;28;20203;-85
2022/12/06 01:18:56;;;;;;;6.00;4.63;;;3.30;99.90;;;;;;4995772;28;20179;-85
2022/12/06 01:21:39;;;;;;;7.30;5.10;;;3.20;99.90;;;;;;4996145;28;20317;-85
2022/12/06 01:24:06;;;;;;;6.10;4.50;;;3.10;99.90;;;;;;4996079;28;20195;-85
2022/12/06 01:26:33;;;;;;;7.30;4.93;;;3.10;99.90;;;;;;4996205;28;20261;-85
2022/12/06 01:29:00;;;;;;;6.87;5.00;;;3.00;99.90;;;;;;4996125;28;20182;-85
2022/12/06 01:31:27;;;;;;;7.53;5.27;;;3.00;99.90;;;;;;4994970;28;20185;-85
2022/12/06 01:33:53;;;;;;;5.80;4.83;;;2.90;99.90;;;;;;5012287;28;20210;-85
2022/12/06 01:36:25;;;;;;;8.40;5.60;;;2.80;99.90;;;;;;4995888;28;20236;-85
2022/12/06 01:38:56;;;;;;;6.87;5.10;;;2.80;99.90;;;;;;5011944;28;20222;-85
2022/12/06 01:41:24;;;;;;;6.70;5.37;;;2.80;99.90;;;;;;5028746;28;20266;-85
2022/12/06 01:43:51;;;;;;;7.00;5.23;;;2.80;99.90;;;;;;5028284;28;20226;-85
2022/12/06 01:46:40;;;;;;;6.43;4.93;;;2.70;99.90;;;;;;5012065;28;20660;-85
2022/12/06 01:49:17;;;;;;;7.87;5.93;;;2.80;99.90;;;;;;5012416;28;20268;-85
2022/12/06 01:51:52;;;;;;;7.87;5.60;;;2.80;99.90;;;;;;5011988;28;20178;-85
2022/12/06 01:54:19;;;;;;;7.27;5.47;;;2.80;99.90;;;;;;4994417;28;20190;-85
2022/12/06 01:56:47;;;;;;;7.77;6.10;;;2.80;99.90;;;;;;5011168;28;20207;-85
2022/12/06 01:59:14;;;;;;;9.17;6.10;;;2.80;99.90;;;;;;5011843;28;20266;-86
2022/12/06 02:01:40;;;;;;;8.37;6.47;;;2.90;99.90;;;;;;5011208;28;20179;-85
2022/12/06 02:04:07;;;;;;;8.70;6.07;;;2.90;99.90;;;;;;4995315;28;20214;-85
2022/12/06 02:06:33;;;;;;;7.57;5.90;;;2.90;99.90;;;;;;5011997;28;20213;-85
2022/12/06 02:09:01;;;;;;;8.70;5.20;;;2.90;99.90;;;;;;4995583;28;20187;-85
2022/12/06 02:11:27;;;;;;;6.43;5.10;;;2.90;99.90;;;;;;5011950;28;20274;-85
2022/12/06 02:13:53;;;;;;;8.23;5.93;;;2.70;99.90;;;;;;5011842;28;20243;-85
2022/12/06 02:16:22;;;;;;;6.63;5.17;;;2.70;99.90;;;;;;5013246;28;20207;-85
2022/12/06 02:19:01;;;;;;;7.80;5.70;;;2.80;99.90;;;;;;4999114;28;20179;-85
2022/12/06 02:21:33;;;;;;;9.00;6.03;;;2.80;99.90;;;;;;5015509;28;20179;-85
2022/12/06 02:24:14;;;;;;;9.83;5.80;;;2.80;99.90;;;;;;4999169;28;20246;-85
2022/12/06 02:27:29;;;;;;;7.50;5.77;;;2.90;99.90;;;;;;5015077;28;20203;-85
2022/12/06 02:30:07;;;;;;;7.13;5.67;;;2.90;99.90;;;;;;4998341;28;20183;-85
2022/12/06 02:32:50;;;;;;;7.33;5.53;;;3.00;99.90;;;;;;4995673;28;20172;-85
2022/12/06 02:35:29;;;;;;;7.73;5.77;;;3.00;99.90;;;;;;4979589;28;20168;-85
2022/12/06 02:38:05;;;;;;;8.23;6.00;;;3.00;99.90;;;;;;5011772;28;20278;-85
2022/12/06 02:40:37;;;;;;;8.17;6.10;;;3.00;99.90;;;;;;4993822;28;20175;-85
2022/12/06 02:43:12;;;;;;;8.53;6.10;;;3.00;99.90;;;;;;5015054;28;20207;-85
2022/12/06 02:45:44;;;;;;;6.10;4.93;;;3.00;99.90;;;;;;5014903;28;20167;-85
2022/12/06 02:48:11;;;;;;;7.23;5.17;;;2.80;99.90;;;;;;5014995;28;20168;-84
2022/12/06 02:50:47;;;;;;;6.93;5.60;;;2.80;99.90;;;;;;5014991;28;20176;-85
2022/12/06 02:53:16;;;;;;;7.17;5.67;;;2.80;99.90;;;;;;4998590;28;20174;-85
2022/12/06 02:55:44;;;;;;;7.17;5.43;;;2.80;99.90;;;;;;5013464;28;20229;-85
2022/12/06 02:58:10;;;;;;;7.97;6.03;;;2.80;99.90;;;;;;4997003;28;20206;-85
2022/12/06 03:00:40;;;;;;;7.77;5.93;;;2.90;99.90;;;;;;4996864;28;20199;-85
2022/12/06 03:03:18;;;;;;;8.40;5.97;;;2.90;99.90;;;;;;4995457;28;20207;-85
2022/12/06 03:06:13;;;;;;;11.10;6.50;;;2.90;99.90;;;;;;5013436;28;20175;-85
2022/12/06 03:09:00;;;;;;;7.20;5.77;;;2.90;99.90;;;;;;4997065;28;20326;-85
2022/12/06 03:11:42;;;;;;;8.30;6.10;;;2.90;99.90;;;;;;5013569;28;20175;-85
2022/12/06 03:14:20;;;;;;;7.07;5.60;;;2.90;99.90;;;;;;5013313;28;20179;-85
2022/12/06 03:16:53;;;;;;;8.87;5.60;;;2.90;99.90;;;;;;5013823;28;20284;-85
2022/12/06 03:19:26;;;;;;;9.00;6.00;;;2.90;99.90;;;;;;4997455;28;20183;-85
2022/12/06 03:22:07;;;;;;;7.03;6.07;;;2.90;99.90;;;;;;4997175;28;20268;-85
2022/12/06 03:24:39;;;;;;;7.20;5.57;;;2.90;99.90;;;;;;4996499;28;20242;-85
2022/12/06 03:27:11;;;;;;;9.93;6.07;;;2.70;99.90;;;;;;4996708;28;20672;-85
2022/12/06 03:29:42;;;;;;;6.23;5.53;;;2.60;99.90;;;;;;5013376;28;20179;-85
2022/12/06 03:32:09;;;;;;;7.90;5.70;;;2.70;99.90;;;;;;4996884;28;20179;-85
2022/12/06 03:34:39;;;;;;;7.93;5.70;;;2.60;99.90;;;;;;4996860;28;20198;-85
2022/12/06 03:37:10;;;;;;;7.33;5.80;;;2.60;99.90;;;;;;5012767;28;20230;-85
2022/12/06 03:40:03;;;;;;;9.20;6.03;;;2.60;99.90;;;;;;4997250;28;20179;-85
2022/12/06 03:42:30;;;;;;;8.17;5.10;;;2.60;99.90;;;;;;5012763;28;20227;-85
2022/12/06 03:44:57;;;;;;;7.07;5.40;;;2.60;99.90;;;;;;4997130;28;20187;-85
2022/12/06 03:47:35;;;;;;;8.27;5.90;;;2.60;99.90;;;;;;4996366;28;20199;-85
2022/12/06 03:50:06;;;;;;;7.00;5.73;;;2.60;99.90;;;;;;5012924;28;20305;-85
2022/12/06 03:52:33;;;;;;;6.93;5.20;;;2.70;99.90;;;;;;5012839;28;20249;-85
2022/12/06 03:54:59;;;;;;;9.68;5.90;;;2.60;99.90;;;;;;4954024;28;1250250;-85
2022/12/06 03:57:25;;;;;;;7.13;5.63;;;2.60;99.90;;;;;;5013324;28;20199;-87
2022/12/06 03:59:51;;;;;;;7.30;5.83;;;2.60;99.90;;;;;;4997703;28;20175;-87
2022/12/06 04:02:16;;;;;;;9.10;6.17;;;2.60;99.90;;;;;;4997706;28;20195;-87
2022/12/06 04:04:42;;;;;;;7.43;5.57;;;2.60;99.90;;;;;;4996977;28;20237;-87
2022/12/06 04:07:10;;;;;;;8.07;5.43;;;2.50;99.90;;;;;;5013254;28;20223;-87
2022/12/06 04:09:51;;;;;;;7.57;5.40;;;2.50;99.90;;;;;;5013581;28;20174;-87
2022/12/06 04:15:03;;;;;;;9.33;6.67;;;2.50;99.90;;;;;;5013768;28;20183;-87
2022/12/06 04:20:13;;;;;;;9.67;7.20;;;2.40;99.90;;;;;;5013090;28;20183;-87
2022/12/06 04:25:23;;;;;;;8.10;5.90;;;2.50;99.90;;;;;;5013323;28;20286;-88
2022/12/06 04:38:46;;;;;;;8.10;6.20;;;2.50;99.90;;;;;;5012292;28;20187;-87
2022/12/06 04:44:05;;;;;;;8.07;6.13;;;2.60;99.90;;;;;;4985110;28;20233;-87
2022/12/06 04:46:31;;;;;;;10.87;6.87;;;2.60;99.90;;;;;;5012567;28;20656;-87
2022/12/06 04:48:57;;;;;;;7.90;5.90;;;2.60;99.90;;;;;;5012966;28;20187;-87
2022/12/06 04:51:33;;;;;;;9.47;6.60;;;2.70;99.90;;;;;;5012765;28;20274;-87
2022/12/06 04:53:59;;;;;;;11.60;7.13;;;2.70;99.90;;;;;;5009577;28;20196;-87
2022/12/06 04:56:25;;;;;;;10.63;7.63;;;2.70;99.90;;;;;;4981230;28;20293;-88
2022/12/06 04:59:02;;;;;;;11.80;8.10;;;2.70;99.90;;;;;;5009487;28;20239;-87
2022/12/06 05:01:28;;;;;;;9.27;7.40;;;2.70;99.90;;;;;;4994037;28;20170;-87
2022/12/06 05:03:54;;;;;;;10.77;7.93;;;2.70;99.90;;;;;;5028922;28;20297;-88
2022/12/06 05:06:19;;;;;;;10.90;7.43;;;2.70;99.90;;;;;;5012540;28;20203;-85
2022/12/06 05:08:45;;;;;;;11.83;8.17;;;2.60;99.90;;;;;;4996064;28;20186;-87
2022/12/06 05:11:11;;;;;;;10.43;7.73;;;2.70;99.90;;;;;;5012326;28;20179;-87
2022/12/06 05:13:37;;;;;;;10.47;7.33;;;2.70;99.90;;;;;;4996247;28;20222;-87
2022/12/06 05:16:05;;;;;;;9.90;7.53;;;2.70;99.90;;;;;;5013590;28;20195;-87
2022/12/06 05:18:31;;;;;;;12.53;10.27;;;2.70;99.90;;;;;;5011917;28;20233;-87
2022/12/06 05:21:05;;;;;;;8.30;7.40;;;2.70;99.90;;;;;;5012615;28;20183;-87
2022/12/06 05:23:35;;;;;;;9.10;6.97;;;2.70;99.90;;;;;;5012074;28;20615;-87
2022/12/06 05:26:07;;;;;;;8.43;6.10;;;2.70;99.90;;;;;;5012453;28;20199;-87
2022/12/06 05:28:34;;;;;;;8.90;6.07;;;2.70;99.90;;;;;;5011581;28;20175;-87
2022/12/06 05:31:00;;;;;;;7.80;5.87;;;2.70;99.90;;;;;;5012068;28;20186;-87
2022/12/06 05:33:27;;;;;;;8.63;6.20;;;2.70;99.90;;;;;;5012615;28;20181;-87
2022/12/06 05:35:53;;;;;;;9.53;6.53;;;2.80;99.90;;;;;;5012604;28;20253;-87
2022/12/06 05:38:19;;;;;;;8.37;6.23;;;2.80;99.90;;;;;;5012025;28;20183;-87
2022/12/06 05:40:46;;;;;;;8.33;6.07;;;2.80;99.90;;;;;;5012255;28;20176;-87
2022/12/06 05:43:12;;;;;;;8.83;6.30;;;2.80;99.90;;;;;;4995706;28;20225;-87
2022/12/06 05:45:38;;;;;;;7.57;5.83;;;2.80;99.90;;;;;;5011867;28;20190;-87
2022/12/06 05:48:05;;;;;;;9.23;6.07;;;2.80;99.90;;;;;;5012178;28;20186;-87
2022/12/06 05:50:31;;;;;;;10.03;6.10;;;2.80;99.90;;;;;;5012626;28;20217;-87
2022/12/06 05:52:59;;;;;;;8.13;6.17;;;2.80;99.90;;;;;;5017279;28;20167;-87
2022/12/06 05:55:26;;;;;;;8.33;6.23;;;2.80;99.90;;;;;;5016154;28;20191;-87
2022/12/06 05:57:52;;;;;;;7.60;5.80;;;2.80;99.90;;;;;;5015615;28;20206;-87
2022/12/06 06:00:18;;;;;;;9.67;5.93;;;2.80;99.90;;;;;;4999637;28;20183;-87
2022/12/06 06:02:45;;;;;;;8.17;6.43;;;2.80;99.90;;;;;;4998876;28;20233;-87
2022/12/06 06:05:11;;;;;;;7.03;5.70;;;2.80;99.90;;;;;;4998210;28;20179;-87
2022/12/06 06:07:37;;;;;;;7.50;6.50;;;2.80;99.90;;;;;;4999189;28;20203;-86
2022/12/06 06:10:04;;;;;;;8.57;6.70;;;2.80;99.90;;;;;;5015765;28;20249;-87
2022/12/06 06:12:30;;;;;;;11.93;8.47;;;2.80;99.90;;;;;;4999046;28;20189;-86
2022/12/06 06:14:56;;;;;;;10.50;7.50;;;2.80;99.90;;;;;;5015730;28;20183;-87
2022/12/06 06:17:23;;;;;;;12.00;8.93;;;2.80;99.90;;;;;;5015384;28;20222;-87
2022/12/06 06:19:50;;;;;;;13.00;7.23;;;2.80;99.90;;;;;;5015203;28;20183;-87
2022/12/06 06:22:17;;;;;;;8.63;6.23;;;2.80;99.90;;;;;;4999221;28;20266;-87
2022/12/06 06:24:47;;;;;;;7.43;5.93;;;2.80;99.90;;;;;;4999165;28;20230;-87
2022/12/06 06:27:13;;;;;;;6.43;5.40;;;2.80;99.90;;;;;;5015131;28;20201;-87
2022/12/06 06:29:39;;;;;;;7.97;5.83;;;2.80;99.90;;;;;;5031052;28;20273;-87
2022/12/06 06:32:05;;;;;;;8.70;5.97;;;2.80;99.90;;;;;;5007455;28;20262;-87
2022/12/06 06:34:31;;;;;;;7.63;5.67;;;2.80;99.90;;;;;;5015310;28;20206;-87
2022/12/06 06:36:57;;;;;;;7.20;5.80;;;2.80;99.90;;;;;;5014331;28;20225;-87
2022/12/06 06:39:24;;;;;;;8.30;5.83;;;2.80;99.90;;;;;;4998825;28;20183;-87
2022/12/06 06:41:50;;;;;;;10.70;6.63;;;2.70;99.90;;;;;;5011962;28;20208;-87
2022/12/06 06:44:16;;;;;;;9.60;6.97;;;2.80;99.90;;;;;;4995176;28;20207;-87
2022/12/06 06:46:42;;;;;;;12.20;7.30;;;2.80;99.90;;;;;;5011900;28;20222;-88
2022/12/06 06:49:08;;;;;;;10.03;6.80;;;2.80;99.90;;;;;;4998896;28;20179;-87
2022/12/06 06:51:33;;;;;;;11.10;7.57;;;2.80;99.90;;;;;;4998702;28;20171;-87
2022/12/06 06:53:59;;;;;;;11.63;7.83;;;2.80;99.90;;;;;;4998468;28;20199;-87
2022/12/06 06:56:25;;;;;;;10.77;7.33;;;2.80;99.90;;;;;;4998325;28;20290;-87
2022/12/06 06:58:52;;;;;;;9.67;7.27;;;2.80;99.90;;;;;;5014759;28;20176;-87
2022/12/06 07:01:22;;;;;;;9.83;7.27;;;2.80;99.90;;;;;;4998347;28;20215;-87
2022/12/06 07:03:50;;;;;;;9.37;7.33;;;2.80;99.90;;;;;;5015863;28;20195;-87
2022/12/06 07:06:17;;;;;;;12.40;8.40;;;2.90;99.90;;;;;;5014634;28;20199;-87
2022/12/06 07:08:43;;;;;;;12.83;8.70;;;2.90;99.90;;;;;;4998254;28;20175;-87
2022/12/06 07:11:11;;;;;;;13.30;7.87;;;2.90;99.90;;;;;;5014674;28;20195;-87
2022/12/06 07:13:39;;;;;;;8.80;7.00;;;2.90;99.90;;;;;;5014672;28;20184;-87
2022/12/06 07:16:07;;;;;;;10.43;7.00;;;2.90;99.90;;;;;;4981959;28;20261;-87
2022/12/06 07:18:33;;;;;;;9.70;7.20;;;2.90;99.90;;;;;;5014590;28;20187;-87
2022/12/06 07:21:05;;;;;;;8.43;6.20;;;2.90;99.90;;;;;;4998370;28;20255;-85
2022/12/06 07:23:33;;;;;;;7.83;6.00;;;2.90;99.90;;;;;;4998131;28;20207;-85
2022/12/06 07:26:06;;;;;;;10.17;7.07;;;3.00;99.90;;;;;;4997953;28;20203;-85
2022/12/06 07:28:38;;;;;;;15.33;9.47;;;3.00;99.90;;;;;;4997902;28;20320;-85
2022/12/06 07:31:19;;;;;;;13.57;8.20;;;3.00;99.90;;;;;;4993740;28;20568;-82
2022/12/06 07:33:54;;;;;;;8.67;6.60;;;2.90;99.90;;;;;;4995275;28;20191;-81
2022/12/06 07:36:21;;;;;;;13.03;6.77;;;3.00;99.90;;;;;;4970879;28;20210;-82
2022/12/06 07:39:19;;;;;;;11.87;7.20;;;3.00;99.90;;;;;;5004501;28;20180;-86
2022/12/06 07:45:03;;;;;;;10.37;8.20;;;3.00;99.90;;;;;;5013394;28;20195;-86
2022/12/06 07:47:38;;;;;;;9.70;7.57;;;3.00;99.90;;;;;;5014162;28;20301;-87
2022/12/06 07:50:08;;;;;;;9.00;6.33;;;3.00;99.90;;;;;;5002730;28;20274;-86
2022/12/06 07:52:36;;;;;;;8.63;6.87;;;3.00;99.90;;;;;;4979528;28;20183;-87
2022/12/06 07:55:04;;;;;;;9.40;7.80;;;3.00;99.90;;;;;;4993854;28;20192;-88
2022/12/06 07:57:30;;;;;;;9.57;7.47;;;3.00;99.90;;;;;;4993808;28;20287;-86
2022/12/06 07:59:56;;;;;;;9.50;7.40;;;2.90;99.90;;;;;;4994385;28;20211;-86
2022/12/06 08:02:24;;;;;;;13.10;6.63;;;2.90;99.90;;;;;;5003946;28;20210;-86
2022/12/06 08:04:51;;;;;;;10.30;6.80;;;2.90;99.90;;;;;;5013435;28;20298;-86
2022/12/06 08:07:18;;;;;;;9.27;6.67;;;2.90;99.90;;;;;;5013243;28;20219;-86
2022/12/06 08:09:44;;;;;;;8.53;6.93;;;2.90;99.90;;;;;;5013954;28;20206;-86
2022/12/06 08:12:09;;;;;;;10.10;6.73;;;2.90;99.90;;;;;;5013605;28;20179;-87
2022/12/06 08:14:36;;;;;;;8.27;6.50;;;2.90;99.90;;;;;;5012568;28;20179;-86
2022/12/06 08:17:03;;;;;;;8.40;6.27;;;2.90;99.90;;;;;;4996779;28;20203;-86
2022/12/06 08:19:29;;;;;;;9.43;7.20;;;3.00;99.90;;;;;;4997097;28;20188;-86
2022/12/06 08:21:55;;;;;;;10.53;7.30;;;3.00;99.90;;;;;;5013204;28;20185;-87
2022/12/06 08:24:21;;;;;;;10.40;6.97;;;3.00;99.90;;;;;;5013219;28;20210;-86
2022/12/06 08:26:48;;;;;;;10.33;7.20;;;3.00;99.90;;;;;;5012833;28;20191;-86
2022/12/06 08:29:15;;;;;;;10.03;7.33;;;3.00;99.90;;;;;;5014458;28;20176;-86
2022/12/06 08:31:42;;;;;;;9.27;6.63;;;3.00;99.90;;;;;;4996982;28;20190;-86
2022/12/06 08:34:08;;;;;;;9.93;6.87;;;3.10;99.90;;;;;;4996425;28;20206;-85
2022/12/06 08:36:37;;;;;;;8.73;6.63;;;3.10;99.90;;;;;;4993484;28;20203;-87
2022/12/06 08:39:03;;;;;;;10.30;7.20;;;3.10;99.90;;;;;;5011856;28;20179;-86
2022/12/06 08:44:15;;;;;;;9.50;7.53;;;3.10;99.90;;;;;;5012949;28;20207;-86
2022/12/06 08:46:42;;;;;;;10.03;7.90;;;3.10;99.90;;;;;;5012551;28;20278;-87
2022/12/06 08:49:09;;;;;;;10.37;7.27;;;3.10;99.90;;;;;;5013180;28;20179;-86
2022/12/06 08:51:35;;;;;;;8.60;6.70;;;3.20;99.90;;;;;;5010848;28;20180;-87
2022/12/06 08:54:03;;;;;;;9.40;6.97;;;3.20;99.90;;;;;;5012544;28;20199;-86
2022/12/06 08:56:30;;;;;;;12.90;7.70;;;3.20;99.90;;;;;;5010299;28;20250;-86
2022/12/06 08:58:57;;;;;;;10.53;6.87;;;3.30;99.90;;;;;;5012537;28;20190;-86
2022/12/06 09:01:27;;;;;;;9.33;7.13;;;3.30;99.90;;;;;;5012428;28;20183;-86
2022/12/06 09:03:54;;;;;;;12.33;7.13;;;3.30;99.90;;;;;;5000828;28;20199;-86
2022/12/06 09:06:21;;;;;;;10.43;7.33;;;3.40;99.90;;;;;;4976668;28;20195;-86
2022/12/06 09:08:47;;;;;;;11.13;7.57;;;3.40;99.90;;;;;;4992392;28;20190;-86
2022/12/06 09:11:14;;;;;;;10.60;7.67;;;3.40;99.90;;;;;;5012093;28;20183;-85
2022/12/06 09:13:45;;;;;;;9.63;7.60;;;3.50;99.90;;;;;;5012258;28;20176;-86
2022/12/06 09:16:20;;;;;;;10.00;7.30;;;3.40;99.90;;;;;;5011956;28;20290;-86
2022/12/06 09:18:47;;;;;;;12.23;7.83;;;3.50;99.90;;;;;;5011994;28;20210;-86
2022/12/06 09:21:18;;;;;;;12.63;9.37;;;3.50;99.90;;;;;;5012168;28;20187;-86
2022/12/06 09:23:45;;;;;;;15.33;9.90;;;3.60;99.90;;;;;;4995372;28;20195;-86
2022/12/06 09:26:12;;;;;;;13.03;9.17;;;3.60;99.90;;;;;;5012888;28;20199;-86
2022/12/06 09:28:42;;;;;;;14.90;10.70;;;3.60;99.90;;;;;;5012122;28;20191;-86
2022/12/06 09:31:11;;;;;;;17.40;11.63;;;3.70;99.90;;;;;;5012813;28;20191;-86
2022/12/06 09:33:38;;;;;;;23.83;16.87;;;3.70;99.90;;;;;;5013527;28;20168;-86
2022/12/06 09:36:14;;;;;;;42.63;26.20;;;3.70;99.90;;;;;;5012635;28;20266;-86
2022/12/06 09:38:43;;;;;;;13.97;9.30;;;3.70;99.90;;;;;;4995673;28;20268;-86
2022/12/06 09:41:50;;;;;;;10.53;7.87;;;3.70;99.90;;;;;;5011753;28;20309;-86
2022/12/06 09:44:19;;;;;;;15.63;11.43;;;3.70;99.90;;;;;;4995575;28;20193;-86
2022/12/06 09:47:12;;;;;;;10.83;8.47;;;3.80;99.90;;;;;;5011405;28;20206;-86
2022/12/06 09:49:44;;;;;;;13.57;8.67;;;3.70;99.90;;;;;;5012009;28;20191;-86
2022/12/06 09:52:39;;;;;;;8.90;6.77;;;3.80;99.90;;;;;;4996059;28;20176;-86
2022/12/06 09:55:23;;;;;;;11.07;8.17;;;3.70;99.90;;;;;;5011787;28;20191;-86
2022/12/06 09:57:58;;;;;;;11.50;8.13;;;3.80;99.90;;;;;;4995430;28;20199;-86
2022/12/06 10:00:27;;;;;;;10.73;8.03;;;3.80;99.90;;;;;;5011981;28;20221;-86
2022/12/06 10:03:05;;;;;;;14.40;10.60;;;3.80;99.90;;;;;;5011818;28;20532;-86
2022/12/06 10:05:56;;;;;;;10.70;7.87;;;3.80;99.90;;;;;;5012195;28;20226;-86
2022/12/06 10:08:53;;;;;;;9.37;6.70;;;3.80;99.90;;;;;;4992281;28;20176;-85
2022/12/06 10:11:37;;;;;;;10.10;7.40;;;3.80;99.90;;;;;;4999509;28;20184;-85
2022/12/06 10:14:25;;;;;;;13.53;9.80;;;3.90;99.90;;;;;;4995437;28;20225;-88
2022/12/06 10:17:03;;;;;;;12.20;8.77;;;4.00;99.90;;;;;;4991759;28;20297;-86
2022/12/06 10:19:32;;;;;;;10.70;7.50;;;4.00;99.90;;;;;;4992049;28;20176;-86
2022/12/06 10:22:19;;;;;;;14.10;11.20;;;4.10;99.90;;;;;;4992000;28;20180;-86
2022/12/06 10:25:03;;;;;;;9.77;7.70;;;4.10;99.90;;;;;;4993660;28;20208;-86
2022/12/06 10:27:37;;;;;;;15.27;8.70;;;4.20;99.90;;;;;;4994969;28;20199;-86
2022/12/06 10:30:10;;;;;;;15.53;8.13;;;4.20;99.90;;;;;;5011264;28;20179;-86
2022/12/06 10:32:53;;;;;;;11.33;7.80;;;4.20;99.90;;;;;;5006937;28;20194;-86
2022/12/06 10:36:10;;;;;;;8.37;6.50;;;4.20;99.90;;;;;;5011578;28;20249;-86
2022/12/06 10:39:16;;;;;;;8.37;6.70;;;4.20;99.90;;;;;;4968841;28;20263;-86
2022/12/06 10:42:01;;;;;;;8.43;6.77;;;4.20;99.90;;;;;;4957462;28;20188;-86
2022/12/06 10:44:41;;;;;;;10.03;7.63;;;4.20;99.90;;;;;;4996729;28;20211;-86
2022/12/06 10:47:15;;;;;;;12.67;8.23;;;4.30;99.90;;;;;;5014397;28;20218;-85
2022/12/06 10:49:55;;;;;;;16.00;13.63;;;4.30;99.90;;;;;;5014785;28;20195;-86
2022/12/06 10:52:39;;;;;;;11.43;9.67;;;4.30;99.90;;;;;;5004835;28;20183;-86
2022/12/06 10:55:08;;;;;;;11.37;7.53;;;4.40;99.90;;;;;;5014535;28;20229;-86
2022/12/06 10:57:50;;;;;;;8.43;6.93;;;4.50;99.90;;;;;;5029751;28;21221;-86
2022/12/06 11:00:31;;;;;;;10.30;7.60;;;4.60;99.90;;;;;;4978801;28;20180;-86
2022/12/06 11:03:15;;;;;;;10.47;7.80;;;4.60;99.90;;;;;;4966196;28;20183;-86
2022/12/06 11:06:02;;;;;;;9.93;6.53;;;4.70;99.90;;;;;;5012487;28;20187;-86
2022/12/06 11:08:56;;;;;;;7.63;6.27;;;4.70;99.90;;;;;;4984192;28;20273;-86
2022/12/06 11:11:35;;;;;;;7.23;5.80;;;4.70;99.90;;;;;;4982210;28;20256;-86
2022/12/06 11:14:35;;;;;;;7.20;5.77;;;4.80;99.90;;;;;;5000771;28;20314;-86
2022/12/06 11:17:31;;;;;;;7.30;5.83;;;4.80;99.90;;;;;;5014467;28;20249;-86
2022/12/06 11:20:15;;;;;;;7.53;5.87;;;4.80;99.90;;;;;;5010496;28;20193;-86
2022/12/06 11:23:15;;;;;;;7.13;5.40;;;4.80;99.90;;;;;;5011800;28;20214;-86
2022/12/06 11:26:06;;;;;;;8.33;6.37;;;4.80;99.90;;;;;;4997571;28;20187;-86
2022/12/06 11:28:43;;;;;;;8.37;5.93;;;4.90;99.90;;;;;;4979542;28;20172;-86
2022/12/06 11:31:24;;;;;;;9.03;6.50;;;5.00;99.90;;;;;;5009965;28;20171;-86
2022/12/06 11:33:50;;;;;;;12.00;6.90;;;5.00;99.90;;;;;;5014043;28;20271;-86
2022/12/06 11:36:18;;;;;;;9.93;6.50;;;5.00;99.90;;;;;;5012413;28;21406;-86
2022/12/06 11:38:48;;;;;;;9.47;6.37;;;5.10;99.90;;;;;;5011386;28;20231;-86
2022/12/06 11:41:21;;;;;;;7.33;5.80;;;5.00;99.90;;;;;;5010609;28;20667;-86
2022/12/06 11:43:54;;;;;;;9.03;6.00;;;5.10;99.90;;;;;;5004752;28;20229;-86
2022/12/06 11:46:22;;;;;;;6.73;5.70;;;5.10;99.90;;;;;;4994326;28;20208;-86
2022/12/06 11:48:49;;;;;;;6.77;5.53;;;5.10;99.90;;;;;;4993140;28;20170;-87
2022/12/06 11:51:22;;;;;;;10.03;6.47;;;5.20;99.90;;;;;;5013468;28;20188;-87
2022/12/06 11:53:53;;;;;;;7.40;5.63;;;5.20;99.90;;;;;;4994400;28;20197;-87
2022/12/06 11:56:27;;;;;;;6.83;5.87;;;5.20;99.90;;;;;;4994137;28;20696;-87
2022/12/06 11:59:05;;;;;;;7.97;5.73;;;5.20;99.90;;;;;;4978207;28;20172;-86
2022/12/06 12:01:42;;;;;;;10.67;6.83;;;5.20;99.90;;;;;;4994449;28;20204;-86
2022/12/06 12:04:41;;;;;;;7.73;5.63;;;5.10;99.90;;;;;;5027911;28;20226;-86
2022/12/06 12:07:18;;;;;;;7.70;6.00;;;5.20;99.90;;;;;;5004958;28;20198;-87
2022/12/06 12:10:23;;;;;;;8.50;7.23;;;5.20;99.90;;;;;;5026776;28;20260;-86
2022/12/06 12:15:34;;;;;;;9.43;6.47;;;5.20;99.90;;;;;;5014205;28;20185;-87
2022/12/06 12:18:02;;;;;;;8.03;5.97;;;5.20;99.90;;;;;;4996612;28;20217;-87
2022/12/06 12:20:32;;;;;;;11.30;7.57;;;5.20;99.90;;;;;;5005746;28;20206;-87
2022/12/06 12:23:19;;;;;;;10.20;7.13;;;5.20;99.90;;;;;;4994820;28;20186;-87
2022/12/06 12:25:57;;;;;;;10.33;7.40;;;5.20;99.90;;;;;;4982703;28;20187;-87
2022/12/06 12:28:27;;;;;;;10.03;7.27;;;5.20;99.90;;;;;;5008098;28;20232;-87
2022/12/06 12:30:58;;;;;;;7.70;6.57;;;5.10;99.90;;;;;;4993636;28;20180;-87
2022/12/06 12:33:28;;;;;;;8.00;7.00;;;5.10;99.90;;;;;;5005332;28;20209;-87
2022/12/06 12:36:03;;;;;;;8.73;6.77;;;5.10;99.90;;;;;;5013169;28;20169;-87
2022/12/06 12:38:32;;;;;;;9.43;7.27;;;5.20;99.90;;;;;;5002544;28;20193;-88
2022/12/06 12:41:15;;;;;;;9.27;6.93;;;5.20;99.90;;;;;;5011344;28;20212;-88
2022/12/06 12:43:55;;;;;;;10.20;7.13;;;5.20;99.90;;;;;;4994767;28;20256;-88
2022/12/06 12:46:21;;;;;;;8.60;6.73;;;5.20;99.90;;;;;;5012861;28;20204;-88
2022/12/06 12:48:49;;;;;;;9.77;6.40;;;5.20;99.90;;;;;;5000735;28;20173;-87
2022/12/06 12:51:36;;;;;;;12.47;7.33;;;5.20;99.90;;;;;;5000999;28;20184;-88
2022/12/06 12:54:17;;;;;;;8.67;6.63;;;5.20;99.90;;;;;;5009307;28;20203;-87
2022/12/06 12:56:44;;;;;;;10.40;7.00;;;5.30;99.90;;;;;;5009229;28;20208;-88
2022/12/06 12:59:16;;;;;;;9.77;6.83;;;5.30;99.90;;;;;;4992961;28;20188;-87
2022/12/06 13:01:48;;;;;;;8.73;6.77;;;5.30;99.90;;;;;;4995012;28;20194;-87
2022/12/06 13:04:30;;;;;;;7.63;6.43;;;5.30;99.90;;;;;;4993001;28;20213;-87
2022/12/06 13:07:06;;;;;;;8.90;6.70;;;5.30;99.90;;;;;;4976790;28;20210;-88
2022/12/06 13:09:39;;;;;;;9.07;6.70;;;5.30;99.90;;;;;;4999219;28;20186;-87
2022/12/06 13:12:19;;;;;;;9.40;7.20;;;5.20;99.90;;;;;;4993714;28;20193;-88
2022/12/06 13:14:57;;;;;;;8.33;6.43;;;5.20;99.90;;;;;;4976924;28;20181;-87
2022/12/06 13:17:27;;;;;;;9.07;6.83;;;5.20;99.90;;;;;;4993006;28;20203;-87
2022/12/06 13:19:53;;;;;;;8.50;6.63;;;5.30;99.90;;;;;;5003298;28;20192;-87
2022/12/06 13:22:30;;;;;;;8.37;6.57;;;5.30;99.90;;;;;;5029004;28;20188;-87
2022/12/06 13:25:04;;;;;;;8.00;6.37;;;5.30;99.90;;;;;;4993839;28;20671;-87
2022/12/06 13:27:38;;;;;;;9.70;7.53;;;5.20;99.90;;;;;;4994805;28;20196;-87
2022/12/06 13:30:19;;;;;;;12.33;6.03;;;5.20;99.90;;;;;;5025563;28;20178;-87
2022/12/06 13:32:58;;;;;;;7.53;5.77;;;5.20;99.90;;;;;;5001255;28;20184;-87
2022/12/06 13:35:39;;;;;;;8.70;6.33;;;5.20;99.90;;;;;;4989511;28;20185;-87
2022/12/06 13:38:24;;;;;;;8.27;6.80;;;5.20;99.90;;;;;;4993695;28;20162;-87
2022/12/06 13:40:56;;;;;;;8.30;6.37;;;5.20;99.90;;;;;;5009476;28;20243;-87
2022/12/06 13:43:25;;;;;;;10.27;6.67;;;5.20;99.90;;;;;;4979294;28;20215;-88
2022/12/06 13:46:08;;;;;;;8.77;6.80;;;5.20;99.90;;;;;;5011588;28;20187;-87
2022/12/06 13:48:54;;;;;;;9.07;6.53;;;5.10;99.90;;;;;;4998373;28;20178;-88